createdAt,value
2022-11-15T00:00:55.993Z,98533.97
2022-11-15T00:03:25.354Z,98530.13
2022-11-15T00:05:52.103Z,98524.91
2022-11-15T00:08:19.349Z,98517.00
2022-11-15T00:11:00.308Z,98506.59
2022-11-15T00:13:27.462Z,98515.88
2022-11-15T00:16:01.296Z,98506.59
2022-11-15T00:18:29.798Z,98500.88
2022-11-15T00:20:56.830Z,98495.69
2022-11-15T00:23:23.776Z,98488.31
2022-11-15T00:25:57.957Z,98480.69
2022-11-15T00:28:25.496Z,98469.78
2022-11-15T00:30:53.028Z,98455.84
2022-11-15T00:33:19.939Z,98446.59
2022-11-15T00:35:46.951Z,98446.31
2022-11-15T00:38:13.657Z,98435.38
2022-11-15T00:40:40.435Z,98430.75
2022-11-15T00:43:07.146Z,98431.03
2022-11-15T00:45:33.805Z,98428.03
2022-11-15T00:48:00.482Z,98423.94
2022-11-15T00:50:27.502Z,98425.03
2022-11-15T00:52:54.108Z,98423.66
2022-11-15T00:55:21.441Z,98406.19
2022-11-15T00:57:48.334Z,98401.00
2022-11-15T01:00:17.995Z,98396.66
2022-11-15T01:02:44.728Z,98393.91
2022-11-15T01:05:11.355Z,98386.81
2022-11-15T01:07:38.151Z,98381.91
2022-11-15T01:10:05.695Z,98370.72
2022-11-15T01:12:33.031Z,98369.34
2022-11-15T01:14:59.823Z,98359.50
2022-11-15T01:17:26.897Z,98359.78
2022-11-15T01:19:53.665Z,98354.59
2022-11-15T01:22:20.356Z,98344.75
2022-11-15T01:24:47.034Z,98337.94
2022-11-15T01:27:13.638Z,98339.31
2022-11-15T01:29:40.340Z,98328.09
2022-11-15T01:32:06.975Z,98327.28
2022-11-15T01:34:33.658Z,98318.00
2022-11-15T01:37:00.277Z,98306.78
2022-11-15T01:39:27.628Z,98296.13
2022-11-15T01:41:54.597Z,98284.38
2022-11-15T01:44:39.949Z,98281.38
2022-11-15T01:47:35.873Z,98269.91
2022-11-15T01:50:09.434Z,98262.81
2022-11-15T01:52:37.066Z,98260.06
2022-11-15T01:55:08.696Z,98256.25
2022-11-15T01:57:35.814Z,98254.31
2022-11-15T02:00:05.287Z,98251.59
2022-11-15T02:02:33.506Z,98246.41
2022-11-15T02:05:03.606Z,98243.66
2022-11-15T02:07:32.069Z,98229.69
2022-11-15T02:10:15.036Z,98223.41
2022-11-15T02:12:42.615Z,98218.72
2022-11-15T02:15:10.411Z,98210.28
2022-11-15T02:17:55.931Z,98204.78
2022-11-15T02:20:44.565Z,98194.13
2022-11-15T02:23:29.500Z,98187.00
2022-11-15T02:26:11.298Z,98180.72
2022-11-15T02:28:56.785Z,98172.47
2022-11-15T02:31:34.994Z,98175.47
2022-11-15T02:34:12.724Z,98166.97
2022-11-15T02:36:56.018Z,98158.22
2022-11-15T02:39:47.619Z,98156.00
2022-11-15T02:42:41.432Z,98145.38
2022-11-15T02:45:12.566Z,98150.00
2022-11-15T02:47:45.348Z,98139.06
2022-11-15T02:50:16.078Z,98139.06
2022-11-15T02:52:46.625Z,98140.13
2022-11-15T02:55:34.015Z,98127.81
2022-11-15T02:58:03.370Z,98127.53
2022-11-15T03:00:36.864Z,98126.44
2022-11-15T03:03:17.294Z,98124.53
2022-11-15T03:05:57.982Z,98111.13
2022-11-15T03:08:32.565Z,98111.13
2022-11-15T03:11:05.256Z,98101.84
2022-11-15T03:13:59.224Z,98098.81
2022-11-15T03:16:33.002Z,98098.25
2022-11-15T03:19:43.586Z,98091.38
2022-11-15T03:22:13.505Z,98085.59
2022-11-15T03:24:42.068Z,98085.34
2022-11-15T03:27:13.257Z,98083.13
2022-11-15T03:29:46.594Z,98077.66
2022-11-15T03:32:26.875Z,98059.56
2022-11-15T03:34:59.621Z,98055.47
2022-11-15T03:37:38.047Z,98047.53
2022-11-15T03:40:06.085Z,98041.50
2022-11-15T03:43:13.898Z,98046.97
2022-11-15T03:45:55.702Z,98051.06
2022-11-15T03:48:29.038Z,98035.44
2022-11-15T03:50:56.674Z,98038.44
2022-11-15T03:53:23.405Z,98036.00
2022-11-15T03:55:50.105Z,98031.34
2022-11-15T03:58:16.762Z,98034.91
2022-11-15T04:00:44.114Z,98026.19
2022-11-15T04:03:10.905Z,98029.19
2022-11-15T04:05:37.540Z,98020.97
2022-11-15T04:08:04.398Z,98006.50
2022-11-15T04:10:31.038Z,98005.41
2022-11-15T04:12:57.667Z,97998.00
2022-11-15T04:15:24.960Z,97988.75
2022-11-15T04:17:54.395Z,97989.56
2022-11-15T04:20:42.517Z,97982.47
2022-11-15T04:23:45.661Z,97973.97
2022-11-15T04:26:17.511Z,97960.22
2022-11-15T04:29:02.955Z,97966.25
2022-11-15T04:31:30.998Z,97966.50
2022-11-15T04:33:57.803Z,97952.56
2022-11-15T04:36:43.427Z,97956.94
2022-11-15T04:39:10.147Z,97955.31
2022-11-15T04:41:36.776Z,97947.03
2022-11-15T04:44:03.487Z,97948.16
2022-11-15T04:46:30.121Z,97943.50
2022-11-15T04:48:58.958Z,97939.94
2022-11-15T04:51:26.192Z,97924.84
2022-11-15T04:53:52.869Z,97918.56
2022-11-15T04:56:19.695Z,97904.59
2022-11-15T04:58:46.569Z,97899.06
2022-11-15T05:01:15.784Z,97893.56
2022-11-15T05:04:01.996Z,97888.66
2022-11-15T05:06:29.130Z,97884.78
2022-11-15T05:08:56.175Z,97887.22
2022-11-15T05:11:23.449Z,97880.38
2022-11-15T05:13:50.122Z,97871.66
2022-11-15T05:16:17.291Z,97857.97
2022-11-15T05:18:44.605Z,97855.44
2022-11-15T05:21:14.125Z,97862.84
2022-11-15T05:23:41.340Z,97858.47
2022-11-15T05:26:09.501Z,97856.78
2022-11-15T05:28:37.553Z,97836.22
2022-11-15T05:31:06.394Z,97840.38
2022-11-15T05:33:34.519Z,97835.41
2022-11-15T05:36:23.195Z,97838.06
2022-11-15T05:38:50.835Z,97832.09
2022-11-15T05:41:22.040Z,97834.25
2022-11-15T05:43:50.509Z,97820.25
2022-11-15T05:46:18.509Z,97815.59
2022-11-15T05:48:49.181Z,97824.34
2022-11-15T05:51:17.055Z,97800.78
2022-11-15T05:53:45.653Z,97807.91
2022-11-15T05:56:13.550Z,97798.81
2022-11-15T05:58:40.268Z,97802.88
2022-11-15T06:01:07.152Z,97788.88
2022-11-15T06:03:33.991Z,97798.44
2022-11-15T06:06:00.934Z,97791.25
2022-11-15T06:08:28.432Z,97779.28
2022-11-15T06:10:55.141Z,97791.25
2022-11-15T06:13:21.810Z,97780.81
2022-11-15T06:15:49.132Z,97780.22
2022-11-15T06:18:16.279Z,97770.97
2022-11-15T06:20:43.061Z,97775.56
2022-11-15T06:23:09.730Z,97768.69
2022-11-15T06:25:36.324Z,97779.03
2022-11-15T06:28:02.990Z,97775.78
2022-11-15T06:30:30.138Z,97778.44
2022-11-15T06:33:01.897Z,97770.22
2022-11-15T06:35:29.181Z,97759.81
2022-11-15T06:37:56.318Z,97760.31
2022-11-15T06:40:23.242Z,97752.59
2022-11-15T06:42:50.018Z,97741.94
2022-11-15T06:45:17.246Z,97743.88
2022-11-15T06:47:47.922Z,97740.53
2022-11-15T06:50:15.159Z,97728.16
2022-11-15T06:52:41.787Z,97724.59
2022-11-15T06:55:09.166Z,97734.44
2022-11-15T06:57:36.872Z,97721.56
2022-11-15T07:00:07.220Z,97716.31
2022-11-15T07:02:33.861Z,97702.31
2022-11-15T07:05:00.586Z,97706.38
2022-11-15T07:07:27.362Z,97705.25
2022-11-15T07:09:54.213Z,97698.38
2022-11-15T07:12:20.870Z,97701.13
2022-11-15T07:14:47.649Z,97692.09
2022-11-15T07:17:14.261Z,97689.84
2022-11-15T07:19:41.563Z,97693.69
2022-11-15T07:22:08.199Z,97694.50
2022-11-15T07:24:34.867Z,97690.97
2022-11-15T07:27:01.591Z,97688.72
2022-11-15T07:29:28.449Z,97678.59
2022-11-15T07:31:55.386Z,97675.56
2022-11-15T07:34:22.064Z,97670.38
2022-11-15T07:36:49.088Z,97668.94
2022-11-15T07:39:15.819Z,97672.22
2022-11-15T07:41:42.584Z,97662.34
2022-11-15T07:44:09.223Z,97651.59
2022-11-15T07:46:37.260Z,97644.72
2022-11-15T07:49:03.965Z,97649.41
2022-11-15T07:51:30.636Z,97652.31
2022-11-15T07:53:57.407Z,97642.19
2022-11-15T07:56:24.141Z,97640.25
2022-11-15T07:58:51.514Z,97636.09
2022-11-15T08:01:18.261Z,97629.00
2022-11-15T08:03:44.917Z,97626.47
2022-11-15T08:06:11.627Z,97620.16
2022-11-15T08:08:38.314Z,97618.22
2022-11-15T08:11:05.045Z,97605.03
2022-11-15T08:13:31.966Z,97602.81
2022-11-15T08:16:00.560Z,97594.75
2022-11-15T08:18:27.505Z,97591.22
2022-11-15T08:21:18.310Z,97596.91
2022-11-15T08:23:45.381Z,97584.31
2022-11-15T08:26:12.235Z,97575.78
2022-11-15T08:28:40.363Z,97565.34
2022-11-15T08:31:17.873Z,97559.56
2022-11-15T08:33:44.996Z,97561.19
2022-11-15T08:36:15.508Z,97553.78
2022-11-15T08:38:42.575Z,97555.91
2022-11-15T08:41:24.492Z,97547.69
2022-11-15T08:43:51.166Z,97530.94
2022-11-15T08:46:19.270Z,97529.84
2022-11-15T08:48:46.363Z,97536.63
2022-11-15T08:51:13.580Z,97526.16
2022-11-15T08:53:41.212Z,97520.03
2022-11-15T08:56:12.435Z,97523.59
2022-11-15T08:58:39.671Z,97515.38
2022-11-15T09:01:07.510Z,97519.44
2022-11-15T09:03:34.310Z,97504.31
2022-11-15T09:06:02.492Z,97502.06
2022-11-15T09:08:47.123Z,97509.16
2022-11-15T09:11:15.688Z,97495.16
2022-11-15T09:13:43.505Z,97498.38
2022-11-15T09:16:10.465Z,97489.03
2022-11-15T09:18:37.056Z,97504.88
2022-11-15T09:21:03.927Z,97496.31
2022-11-15T09:23:32.613Z,97482.94
2022-11-15T09:26:04.017Z,97489.41
2022-11-15T09:28:33.190Z,97485.56
2022-11-15T09:31:02.091Z,97477.66
2022-11-15T09:33:30.016Z,97471.50
2022-11-15T09:36:15.399Z,97460.53
2022-11-15T09:38:42.069Z,97466.22
2022-11-15T09:41:29.247Z,97460.41
2022-11-15T09:44:34.727Z,97469.47
2022-11-15T09:47:16.195Z,97453.63
2022-11-15T09:49:43.066Z,97461.53
2022-11-15T09:52:12.309Z,97445.91
2022-11-15T09:54:59.469Z,97447.22
2022-11-15T09:57:52.525Z,97440.94
2022-11-15T10:00:49.863Z,97443.03
2022-11-15T10:03:31.893Z,97444.00
2022-11-15T10:06:04.707Z,97442.28
2022-11-15T10:08:43.901Z,97430.69
2022-11-15T10:11:36.807Z,97432.81
2022-11-15T10:14:09.773Z,97428.28
2022-11-15T10:16:57.411Z,97426.06
2022-11-15T10:19:36.128Z,97436.41
2022-11-15T10:22:02.849Z,97430.28
2022-11-15T10:24:40.860Z,97423.69
2022-11-15T10:27:17.689Z,97427.22
2022-11-15T10:29:49.770Z,97407.22
2022-11-15T10:32:19.549Z,97405.91
2022-11-15T10:34:46.837Z,97410.56
2022-11-15T10:37:15.048Z,97404.28
2022-11-15T10:39:41.720Z,97394.59
2022-11-15T10:42:29.370Z,97391.22
2022-11-15T10:44:56.367Z,97382.53
2022-11-15T10:47:38.906Z,97382.00
2022-11-15T10:50:27.027Z,97385.75
2022-11-15T10:52:54.548Z,97372.03
2022-11-15T10:55:23.894Z,97369.75
2022-11-15T10:57:54.835Z,97371.41
2022-11-15T11:00:21.506Z,97360.41
2022-11-15T11:02:57.345Z,97354.94
2022-11-15T11:05:39.960Z,97358.16
2022-11-15T11:08:14.275Z,97342.00
2022-11-15T11:10:58.612Z,97336.72
2022-11-15T11:13:29.836Z,97342.19
2022-11-15T11:16:02.592Z,97331.22
2022-11-15T11:18:40.992Z,97347.84
2022-11-15T11:21:15.067Z,97337.34
2022-11-15T11:23:59.488Z,97333.81
2022-11-15T11:27:03.371Z,97335.56
2022-11-15T11:29:57.580Z,97326.81
2022-11-15T11:32:58.308Z,97330.88
2022-11-15T11:35:42.584Z,97336.84
2022-11-15T11:38:28.167Z,97331.53
2022-11-15T11:41:18.558Z,97322.69
2022-11-15T11:43:57.158Z,97303.94
2022-11-15T11:46:29.737Z,97306.88
2022-11-15T11:49:23.607Z,97305.44
2022-11-15T11:52:02.888Z,97305.44
2022-11-15T11:54:48.239Z,97311.25
2022-11-15T11:57:34.040Z,97316.72
2022-11-15T12:00:29.449Z,97318.34
2022-11-15T12:03:18.322Z,97313.97
2022-11-15T12:05:53.183Z,97308.50
2022-11-15T12:08:31.543Z,97304.63
2022-11-15T12:11:09.193Z,97291.38
2022-11-15T12:13:38.648Z,97296.38
2022-11-15T12:16:26.026Z,97284.28
2022-11-15T12:18:55.622Z,97265.06
2022-11-15T12:21:47.870Z,97279.09
2022-11-15T12:24:33.139Z,97298.66
2022-11-15T12:27:26.314Z,97306.72
2022-11-15T12:29:58.547Z,97317.50
2022-11-15T12:32:34.623Z,97305.56
2022-11-15T12:35:05.313Z,97306.88
2022-11-15T12:37:44.208Z,97283.31
2022-11-15T12:40:13.938Z,97298.16
2022-11-15T12:42:59.789Z,97292.84
2022-11-15T12:45:28.377Z,97298.69
2022-11-15T12:47:57.143Z,97291.72
2022-11-15T12:50:51.716Z,97295.63
2022-11-15T12:53:45.673Z,97288.66
2022-11-15T12:56:19.692Z,97290.94
2022-11-15T12:59:00.669Z,97284.00
2022-11-15T13:01:51.404Z,97287.84
2022-11-15T13:04:21.327Z,97286.72
2022-11-15T13:06:57.700Z,97295.63
2022-11-15T13:09:33.323Z,97290.94
2022-11-15T13:12:35.267Z,97288.19
2022-11-15T13:15:12.878Z,97304.53
2022-11-15T13:17:52.934Z,97305.97
2022-11-15T13:20:37.777Z,97308.25
2022-11-15T13:23:14.556Z,97300.81
2022-11-15T13:25:48.828Z,97304.19
2022-11-15T13:28:15.483Z,97317.59
2022-11-15T13:31:14.060Z,97310.16
2022-11-15T13:33:40.922Z,97302.88
2022-11-15T13:36:14.889Z,97311.44
2022-11-15T13:38:42.577Z,97316.75
2022-11-15T13:41:30.468Z,97316.91
2022-11-15T13:43:58.326Z,97321.09
2022-11-15T13:50:44.375Z,97332.09
2022-11-15T13:53:12.204Z,97333.25
2022-11-15T13:55:40.190Z,97326.56
2022-11-15T13:58:14.086Z,97338.38
2022-11-15T14:00:46.598Z,97339.16
2022-11-15T14:03:22.152Z,97346.22
2022-11-15T14:06:17.515Z,97355.06
2022-11-15T14:11:56.765Z,97358.81
2022-11-15T14:14:25.497Z,97357.53
2022-11-15T14:17:41.172Z,97356.53
2022-11-15T14:20:31.907Z,97354.41
2022-11-15T14:23:24.962Z,97357.34
2022-11-15T14:25:57.122Z,97364.31
2022-11-15T14:28:30.896Z,97357.53
2022-11-15T14:31:00.095Z,97360.13
2022-11-15T14:33:36.175Z,97359.47
2022-11-15T14:36:31.014Z,97356.88
2022-11-15T14:39:06.483Z,97362.19
2022-11-15T14:41:41.316Z,97368.44
2022-11-15T14:44:11.542Z,97367.91
2022-11-15T14:46:38.241Z,97364.22
2022-11-15T14:49:09.062Z,97355.66
2022-11-15T14:51:35.898Z,97348.84
2022-11-15T14:54:02.595Z,97353.34
2022-11-15T14:56:29.214Z,97346.06
2022-11-15T14:58:57.619Z,97352.50
2022-11-15T15:01:29.985Z,97350.13
2022-11-15T15:03:58.098Z,97355.56
2022-11-15T15:06:25.254Z,97359.16
2022-11-15T15:08:53.464Z,97354.91
2022-11-15T15:11:31.602Z,97353.13
2022-11-15T15:14:02.043Z,97354.97
2022-11-15T15:16:28.762Z,97363.13
2022-11-15T15:18:55.597Z,97362.72
2022-11-15T15:21:25.180Z,97364.50
2022-11-15T15:23:52.768Z,97368.97
2022-11-15T15:26:19.643Z,97366.97
2022-11-15T15:28:46.371Z,97370.19
2022-11-15T15:31:13.027Z,97377.94
2022-11-15T15:33:39.690Z,97373.50
2022-11-15T15:36:06.600Z,97375.22
2022-11-15T15:38:33.503Z,97371.50
2022-11-15T15:41:02.972Z,97378.09
2022-11-15T15:43:29.592Z,97393.06
2022-11-15T15:45:56.334Z,97395.09
2022-11-15T15:48:23.033Z,97388.28
2022-11-15T15:50:50.323Z,97383.22
2022-11-15T15:53:18.397Z,97390.84
2022-11-15T15:55:45.110Z,97383.75
2022-11-15T15:58:15.402Z,97381.00
2022-11-15T16:00:42.272Z,97388.09
2022-11-15T16:03:09.027Z,97389.22
2022-11-15T16:05:35.674Z,97381.09
2022-11-15T16:08:02.610Z,97385.97
2022-11-15T16:10:32.035Z,97383.75
2022-11-15T16:12:59.079Z,97379.47
2022-11-15T16:15:27.798Z,97387.00
2022-11-15T16:17:56.921Z,97391.25
2022-11-15T16:20:43.682Z,97395.81
2022-11-15T16:23:13.456Z,97397.53
2022-11-15T16:25:50.959Z,97390.34
2022-11-15T16:28:19.065Z,97391.69
2022-11-15T16:30:46.042Z,97391.47
2022-11-15T16:33:12.740Z,97391.78
2022-11-15T16:35:39.362Z,97391.69
2022-11-15T16:38:05.994Z,97388.03
2022-11-15T16:40:36.009Z,97402.72
2022-11-15T16:43:04.562Z,97406.53
2022-11-15T16:45:39.687Z,97415.88
2022-11-15T16:48:07.001Z,97404.66
2022-11-15T16:50:41.444Z,97408.19
2022-11-15T16:53:08.160Z,97408.69
2022-11-15T16:55:40.918Z,97417.41
2022-11-15T16:58:12.137Z,97420.22
2022-11-15T17:00:38.818Z,97414.59
2022-11-15T17:03:05.968Z,97409.41
2022-11-15T17:05:32.835Z,97418.63
2022-11-15T17:07:59.614Z,97422.06
2022-11-15T17:10:27.622Z,97410.81
2022-11-15T17:12:56.161Z,97408.56
2022-11-15T17:15:24.569Z,97405.22
2022-11-15T17:17:53.710Z,97404.91
2022-11-15T17:20:22.711Z,97401.38
2022-11-15T17:22:49.531Z,97403.63
2022-11-15T17:25:16.471Z,97403.91
2022-11-15T17:27:43.198Z,97404.72
2022-11-15T17:30:13.229Z,97400.38
2022-11-15T17:32:39.958Z,97381.84
2022-11-15T17:35:15.154Z,97344.44
2022-11-15T17:37:42.744Z,97356.19
2022-11-15T17:40:09.861Z,97362.25
2022-11-15T17:42:36.553Z,97367.75
2022-11-15T17:45:08.388Z,97378.69
2022-11-15T17:47:36.501Z,97377.06
2022-11-15T17:50:03.216Z,97373.81
2022-11-15T17:52:29.880Z,97364.50
2022-11-15T17:54:56.518Z,97363.66
2022-11-15T17:57:23.913Z,97369.97
2022-11-15T17:59:50.709Z,97362.25
2022-11-15T18:02:17.475Z,97360.66
2022-11-15T18:04:44.534Z,97360.66
2022-11-15T18:07:12.458Z,97359.03
2022-11-15T18:09:42.337Z,97365.31
2022-11-15T18:12:10.300Z,97370.47
2022-11-15T18:14:37.170Z,97372.09
2022-11-15T18:17:04.060Z,97370.38
2022-11-15T18:19:30.737Z,97364.50
2022-11-15T18:21:57.480Z,97366.13
2022-11-15T18:24:35.756Z,97357.28
2022-11-15T18:27:05.647Z,97357.59
2022-11-15T18:29:34.589Z,97349.06
2022-11-15T18:32:04.073Z,97344.72
2022-11-15T18:34:32.587Z,97351.91
2022-11-15T18:37:10.049Z,97347.56
2022-11-15T18:39:40.652Z,97349.19
2022-11-15T18:42:07.346Z,97347.47
2022-11-15T18:44:34.549Z,97343.50
2022-11-15T18:47:04.757Z,97343.41
2022-11-15T18:49:34.584Z,97345.00
2022-11-15T18:52:01.330Z,97333.75
2022-11-15T18:54:31.917Z,97336.19
2022-11-15T18:56:58.795Z,97337.00
2022-11-15T18:59:27.813Z,97340.34
2022-11-15T19:01:55.569Z,97334.66
2022-11-15T19:04:22.641Z,97333.06
2022-11-15T19:06:51.131Z,97340.13
2022-11-15T19:09:19.390Z,97333.66
2022-11-15T19:11:47.857Z,97332.03
2022-11-15T19:14:16.876Z,97333.28
2022-11-15T19:16:46.559Z,97333.69
2022-11-15T19:19:15.573Z,97333.59
2022-11-15T19:21:42.990Z,97331.69
2022-11-15T19:24:12.789Z,97328.53
2022-11-15T19:26:39.631Z,97328.22
2022-11-15T19:29:08.106Z,97340.09
2022-11-15T19:31:35.163Z,97347.69
2022-11-15T19:34:06.671Z,97337.78
2022-11-15T19:36:37.475Z,97335.03
2022-11-15T19:39:08.516Z,97337.34
2022-11-15T19:41:37.913Z,97340.31
2022-11-15T19:44:05.431Z,97339.59
2022-11-15T19:46:32.376Z,97336.44
2022-11-15T19:48:59.447Z,97335.75
2022-11-15T19:51:29.324Z,97344.66
2022-11-15T19:53:58.554Z,97332.69
2022-11-15T19:56:25.398Z,97335.75
2022-11-15T19:58:53.757Z,97337.34
2022-11-15T20:01:28.403Z,97327.84
2022-11-15T20:03:58.601Z,97340.78
2022-11-15T20:06:34.165Z,97338.75
2022-11-15T20:09:01.462Z,97354.16
2022-11-15T20:11:29.007Z,97355.75
2022-11-15T20:14:02.085Z,97362.94
2022-11-15T20:16:29.439Z,97358.50
2022-11-15T20:18:56.211Z,97361.13
2022-11-15T20:21:22.943Z,97363.88
2022-11-15T20:23:51.838Z,97369.84
2022-11-15T20:26:20.113Z,97364.97
2022-11-15T20:28:48.017Z,97360.63
2022-11-15T20:31:15.284Z,97358.19
2022-11-15T20:33:41.915Z,97364.06
2022-11-15T20:36:12.343Z,97354.25
2022-11-15T20:38:39.311Z,97360.78
2022-11-15T20:41:06.438Z,97362.72
2022-11-15T20:43:33.454Z,97362.50
2022-11-15T20:46:00.209Z,97364.47
2022-11-15T20:48:27.321Z,97370.25
2022-11-15T20:51:07.573Z,97366.50
2022-11-15T20:53:34.262Z,97376.94
2022-11-15T20:56:13.006Z,97374.19
2022-11-15T20:58:40.529Z,97379.13
2022-11-15T21:01:09.253Z,97384.19
2022-11-15T21:03:36.033Z,97386.59
2022-11-15T21:06:03.183Z,97390.16
2022-11-15T21:08:50.071Z,97387.41
2022-11-15T21:11:35.419Z,97394.00
2022-11-15T21:14:07.764Z,97402.19
2022-11-15T21:16:35.855Z,97403.31
2022-11-15T21:19:02.554Z,97402.47
2022-11-15T21:21:29.640Z,97408.25
2022-11-15T21:23:56.482Z,97404.78
2022-11-15T21:26:23.164Z,97403.66
2022-11-15T21:28:49.858Z,97410.47
2022-11-15T21:31:16.514Z,97410.56
2022-11-15T21:33:43.139Z,97409.44
2022-11-15T21:36:09.883Z,97408.09
2022-11-15T21:38:36.758Z,97413.06
2022-11-15T21:41:04.211Z,97410.03
2022-11-15T21:43:30.986Z,97409.78
2022-11-15T21:46:02.429Z,97406.25
2022-11-15T21:48:30.842Z,97401.47
2022-11-15T21:51:13.223Z,97408.13
2022-11-15T21:53:49.698Z,97398.00
2022-11-15T21:56:16.981Z,97398.66
2022-11-15T21:58:44.040Z,97397.13
2022-11-15T22:01:31.074Z,97388.19
2022-11-15T22:03:57.980Z,97384.50
2022-11-15T22:06:24.695Z,97396.56
2022-11-15T22:08:51.472Z,97398.81
2022-11-15T22:11:18.396Z,97397.38
2022-11-15T22:13:45.591Z,97403.72
2022-11-15T22:16:12.387Z,97407.72
2022-11-15T22:18:39.735Z,97403.44
2022-11-15T22:21:10.180Z,97409.78
2022-11-15T22:23:37.349Z,97414.13
2022-11-15T22:26:05.713Z,97417.59
2022-11-15T22:28:33.445Z,97423.06
2022-11-15T22:31:00.797Z,97413.56
2022-11-15T22:33:29.531Z,97410.28
2022-11-15T22:35:56.881Z,97405.13
2022-11-15T22:38:24.225Z,97408.44
2022-11-15T22:40:50.924Z,97413.47
2022-11-15T22:43:20.798Z,97410.25
2022-11-15T22:45:58.614Z,97411.06
2022-11-15T22:48:30.978Z,97412.69
2022-11-15T22:50:58.281Z,97418.09
2022-11-15T22:53:25.896Z,97419.50
2022-11-15T22:55:57.878Z,97415.66
2022-11-15T22:58:26.762Z,97418.75
2022-11-15T23:00:56.087Z,97419.88
2022-11-15T23:03:23.726Z,97407.97
2022-11-15T23:05:51.068Z,97414.28
2022-11-15T23:08:18.729Z,97423.78
2022-11-15T23:11:04.653Z,97418.63
2022-11-15T23:13:32.821Z,97417.28
2022-11-15T23:16:23.364Z,97424.91
2022-11-15T23:18:52.899Z,97424.03
2022-11-15T23:21:41.733Z,97426.47
2022-11-15T23:24:11.083Z,97418.22
2022-11-15T23:26:38.986Z,97425.31
2022-11-15T23:32:06.898Z,97432.91
2022-11-15T23:34:37.857Z,97426.94
2022-11-15T23:37:06.072Z,97421.72
2022-11-15T23:39:33.402Z,97421.91
2022-11-15T23:42:05.951Z,97422.16
2022-11-15T23:44:35.435Z,97420.97
2022-11-15T23:47:02.216Z,97422.69
2022-11-15T23:49:29.406Z,97424.47
2022-11-15T23:51:59.199Z,97416.56
2022-11-15T23:54:26.056Z,97420.63
2022-11-15T23:57:02.235Z,97420.88
2022-11-15T23:59:30.173Z,97421.13
